Time;durP1;ratioP1;P1;durP2;ratioP2;P2;SDS_P1;SDS_P2;PMS_P1;PMS_P2;Temp;Humidity;BMP_temperature;BMP_pressure;BME280_temperature;BME280_humidity;BME280_pressure;Samples;Min_cycle;Max_cycle;Signal;HPM_P1;HPM_P2
2022/06/19 00:00:38;;;;;;;;;;;;;;;;;;2090308;28;19921;-42
2022/06/19 00:01:39;;;;;;;;;;;;;;;;;;2089497;28;20003;-43
2022/06/19 00:02:40;;;;;;;;;;;;;;;;;;2089616;28;19960;-42
2022/06/19 00:03:41;;;;;;;;;;;;;;;;;;2090263;28;19921;-42
2022/06/19 00:04:42;;;;;;;;;;;;;;;;;;2090083;28;20023;-42
2022/06/19 00:05:43;;;;;;;;;;;;;;;;;;2090225;28;19920;-42
2022/06/19 00:06:44;;;;;;;;;;;;;;;;;;2090316;28;20394;-46
2022/06/19 00:07:45;;;;;;;;;;;;;;;;;;2089826;28;20414;-46
2022/06/19 00:08:48;;;;;;;;;;;;;;;;;;2090161;28;19970;-45
2022/06/19 00:09:50;;;;;;;;;;;;;;;;;;2090133;28;19925;-42
2022/06/19 00:10:50;;;;;;;;;;;;;;;;;;2090026;28;19920;-42
2022/06/19 00:11:52;;;;;;;;;;;;;;;;;;2081893;28;19990;-42
2022/06/19 00:12:52;;;;;;;;;;;;;;;;;;2081928;28;20274;-42
2022/06/19 00:13:53;;;;;;;;;;;;;;;;;;2081830;28;19971;-42
2022/06/19 00:14:54;;;;;;;;;;;;;;;;;;2081854;28;19925;-42
2022/06/19 00:15:55;;;;;;;;;;;;;;;;;;2081789;28;19921;-42
2022/06/19 00:16:56;;;;;;;;;;;;;;;;;;2081892;28;19928;-42
2022/06/19 00:17:57;;;;;;;;;;;;;;;;;;2081876;28;19971;-42
2022/06/19 00:18:58;;;;;;;;;;;;;;;;;;2081869;28;20373;-42
2022/06/19 00:19:59;;;;;;;;;;;;;;;;;;2081826;28;19956;-42
2022/06/19 00:20:59;;;;;;;;;;;;;;;;;;2081931;28;19928;-42
2022/06/19 00:22:00;;;;;;;;;;;;;;;;;;2081823;28;20280;-41
2022/06/19 00:23:01;;;;;;;;;;;;;;;;;;2081879;28;19921;-41
2022/06/19 00:24:02;;;;;;;;;;;;;;;;;;2081817;28;19924;-41
2022/06/19 00:25:03;;;;;;;;;;;;;;;;;;2081988;28;19928;-42
2022/06/19 00:26:04;;;;;;;;;;;;;;;;;;2081771;28;19925;-42
2022/06/19 00:27:05;;;;;;;;;;;;;;;;;;2081784;28;20023;-42
2022/06/19 00:28:06;;;;;;;;;;;;;;;;;;2081908;28;20002;-42
2022/06/19 00:29:06;;;;;;;;;;;;;;;;;;2081648;28;19921;-42
2022/06/19 00:30:07;;;;;;;;;;;;;;;;;;2081928;28;20054;-42
2022/06/19 00:31:08;;;;;;;;;;;;;;;;;;2081677;28;19921;-42
2022/06/19 00:32:09;;;;;;;;;;;;;;;;;;2081703;28;20393;-42
2022/06/19 00:33:10;;;;;;;;;;;;;;;;;;2082049;28;19968;-42
2022/06/19 00:34:11;;;;;;;;;;;;;;;;;;2081727;28;20080;-41
2022/06/19 00:35:12;;;;;;;;;;;;;;;;;;2081767;28;19952;-42
2022/06/19 00:36:13;;;;;;;;;;;;;;;;;;2081839;28;19927;-42
2022/06/19 00:37:14;;;;;;;;;;;;;;;;;;2081752;28;20370;-42
2022/06/19 00:38:15;;;;;;;;;;;;;;;;;;2081678;28;19928;-42
2022/06/19 00:39:16;;;;;;;;;;;;;;;;;;2081734;28;20019;-42
2022/06/19 00:40:17;;;;;;;;;;;;;;;;;;2081689;28;19921;-42
2022/06/19 00:41:18;;;;;;;;;;;;;;;;;;2081595;28;19953;-42
2022/06/19 00:42:19;;;;;;;;;;;;;;;;;;2088530;28;19927;-42
2022/06/19 00:43:20;;;;;;;;;;;;;;;;;;2090059;28;20461;-42
2022/06/19 00:44:21;;;;;;;;;;;;;;;;;;2090037;28;19943;-42
2022/06/19 00:45:22;;;;;;;;;;;;;;;;;;2090028;28;19999;-42
2022/06/19 00:46:23;;;;;;;;;;;;;;;;;;2090047;28;19964;-41
2022/06/19 00:47:24;;;;;;;;;;;;;;;;;;2089789;28;19947;-42
2022/06/19 00:48:25;;;;;;;;;;;;;;;;;;2090044;28;19921;-42
2022/06/19 00:49:26;;;;;;;;;;;;;;;;;;2089857;28;19927;-43
2022/06/19 00:50:27;;;;;;;;;;;;;;;;;;2089899;28;19924;-41
2022/06/19 00:51:28;;;;;;;;;;;;;;;;;;2089796;28;19924;-42
2022/06/19 00:52:28;;;;;;;;;;;;;;;;;;2089795;28;19963;-42
2022/06/19 00:53:29;;;;;;;;;;;;;;;;;;2089900;28;19920;-42
2022/06/19 00:54:30;;;;;;;;;;;;;;;;;;2089892;28;19921;-42
2022/06/19 00:55:31;;;;;;;;;;;;;;;;;;2090032;28;19920;-45
2022/06/19 00:56:32;;;;;;;;;;;;;;;;;;2090112;28;19968;-43
2022/06/19 00:57:33;;;;;;;;;;;;;;;;;;2090015;28;20420;-42
2022/06/19 00:58:34;;;;;;;;;;;;;;;;;;2089979;28;20366;-45
2022/06/19 00:59:35;;;;;;;;;;;;;;;;;;2089713;28;19931;-44
2022/06/19 01:00:36;;;;;;;;;;;;;;;;;;2089803;28;20024;-44
2022/06/19 01:01:38;;;;;;;;;;;;;;;;;;2089899;28;20012;-44
2022/06/19 01:02:39;;;;;;;;;;;;;;;;;;2089667;28;20003;-45
2022/06/19 01:03:40;;;;;;;;;;;;;;;;;;2089568;28;20378;-45
2022/06/19 01:04:42;;;;;;;;;;;;;;;;;;2089778;28;19989;-46
2022/06/19 01:05:43;;;;;;;;;;;;;;;;;;2089837;28;19970;-46
2022/06/19 01:06:44;;;;;;;;;;;;;;;;;;2089825;28;20011;-44
2022/06/19 01:07:44;;;;;;;;;;;;;;;;;;2090026;28;19928;-45
2022/06/19 01:08:47;;;;;;;;;;;;;;;;;;2089825;28;20284;-45
2022/06/19 01:09:48;;;;;;;;;;;;;;;;;;2089758;28;20015;-45
2022/06/19 01:10:49;;;;;;;;;;;;;;;;;;2089809;28;19971;-44
2022/06/19 01:11:49;;;;;;;;;;;;;;;;;;2081715;28;19960;-44
2022/06/19 01:12:50;;;;;;;;;;;;;;;;;;2081692;28;20366;-45
2022/06/19 01:13:51;;;;;;;;;;;;;;;;;;2081452;28;20024;-45
2022/06/19 01:14:52;;;;;;;;;;;;;;;;;;2081428;28;19944;-46
2022/06/19 01:15:53;;;;;;;;;;;;;;;;;;2081645;28;19982;-42
2022/06/19 01:16:54;;;;;;;;;;;;;;;;;;2081689;28;19925;-45
2022/06/19 01:17:55;;;;;;;;;;;;;;;;;;2081831;28;19928;-45
2022/06/19 01:18:56;;;;;;;;;;;;;;;;;;2081490;28;19931;-45
2022/06/19 01:19:57;;;;;;;;;;;;;;;;;;2081779;28;20015;-45
2022/06/19 01:20:58;;;;;;;;;;;;;;;;;;2081630;28;19921;-45
2022/06/19 01:21:58;;;;;;;;;;;;;;;;;;2081502;28;20020;-45
2022/06/19 01:22:59;;;;;;;;;;;;;;;;;;2081474;28;20314;-45
2022/06/19 01:24:00;;;;;;;;;;;;;;;;;;2081461;28;19921;-45
2022/06/19 01:25:01;;;;;;;;;;;;;;;;;;2081527;28;19921;-44
2022/06/19 01:26:02;;;;;;;;;;;;;;;;;;2081554;28;19971;-45
2022/06/19 01:27:03;;;;;;;;;;;;;;;;;;2081642;28;20008;-42
2022/06/19 01:29:23;;;;;;;;;;;;;;;;;;2081396;28;20036;-43
2022/06/19 01:30:24;;;;;;;;;;;;;;;;;;2081566;28;20007;-42
2022/06/19 01:31:25;;;;;;;;;;;;;;;;;;2081367;28;20600;-43
2022/06/19 01:32:26;;;;;;;;;;;;;;;;;;2081371;28;19921;-43
2022/06/19 01:33:27;;;;;;;;;;;;;;;;;;2081379;28;19932;-42
2022/06/19 01:34:27;;;;;;;;;;;;;;;;;;2081350;28;20011;-42
2022/06/19 01:35:28;;;;;;;;;;;;;;;;;;2081863;28;20095;-43
2022/06/19 01:36:35;;;;;;;;;;;;;;;;;;2081340;28;20452;-42
2022/06/19 01:37:36;;;;;;;;;;;;;;;;;;2081386;28;19995;-42
2022/06/19 01:38:37;;;;;;;;;;;;;;;;;;2081276;28;20428;-42
2022/06/19 01:39:38;;;;;;;;;;;;;;;;;;2081491;28;20000;-43
2022/06/19 01:40:39;;;;;;;;;;;;;;;;;;2081336;28;19928;-42
2022/06/19 01:41:40;;;;;;;;;;;;;;;;;;2081217;28;20352;-44
2022/06/19 01:42:41;;;;;;;;;;;;;;;;;;2081682;28;19921;-46
2022/06/19 01:43:42;;;;;;;;;;;;;;;;;;2081295;28;20003;-45
2022/06/19 01:44:43;;;;;;;;;;;;;;;;;;2081493;28;19920;-45
2022/06/19 01:45:43;;;;;;;;;;;;;;;;;;2081524;28;19964;-45
2022/06/19 01:46:45;;;;;;;;;;;;;;;;;;2081515;28;19928;-46
2022/06/19 01:47:45;;;;;;;;;;;;;;;;;;2081172;28;19925;-45
2022/06/19 01:48:46;;;;;;;;;;;;;;;;;;2081537;28;19921;-43
2022/06/19 01:49:47;;;;;;;;;;;;;;;;;;2081331;28;20370;-43
2022/06/19 01:50:48;;;;;;;;;;;;;;;;;;2081328;28;19920;-43
2022/06/19 01:51:49;;;;;;;;;;;;;;;;;;2081459;28;19974;-43
2022/06/19 01:52:50;;;;;;;;;;;;;;;;;;2081446;28;19974;-43
2022/06/19 01:53:51;;;;;;;;;;;;;;;;;;2081393;28;20011;-43
2022/06/19 01:54:52;;;;;;;;;;;;;;;;;;2081333;28;19921;-43
2022/06/19 01:55:52;;;;;;;;;;;;;;;;;;2081245;28;19928;-43
2022/06/19 01:56:54;;;;;;;;;;;;;;;;;;2081274;28;19921;-43
2022/06/19 01:57:54;;;;;;;;;;;;;;;;;;2081614;28;20011;-45
2022/06/19 01:58:55;;;;;;;;;;;;;;;;;;2081699;28;19921;-45
2022/06/19 01:59:56;;;;;;;;;;;;;;;;;;2081962;28;19921;-45
2022/06/19 02:00:57;;;;;;;;;;;;;;;;;;2089465;28;20392;-46
2022/06/19 02:01:58;;;;;;;;;;;;;;;;;;2089515;28;19990;-45
2022/06/19 02:02:59;;;;;;;;;;;;;;;;;;2089516;28;20370;-45
2022/06/19 02:04:00;;;;;;;;;;;;;;;;;;2089583;28;20054;-45
2022/06/19 02:05:01;;;;;;;;;;;;;;;;;;2089644;28;20393;-46
2022/06/19 02:06:02;;;;;;;;;;;;;;;;;;2089565;28;19920;-44
2022/06/19 02:07:03;;;;;;;;;;;;;;;;;;2089631;28;19966;-43
2022/06/19 02:08:04;;;;;;;;;;;;;;;;;;2089404;28;20360;-43
2022/06/19 02:09:05;;;;;;;;;;;;;;;;;;2089383;28;19925;-44
2022/06/19 02:10:05;;;;;;;;;;;;;;;;;;2089490;28;19921;-44
2022/06/19 02:11:06;;;;;;;;;;;;;;;;;;2087386;28;19963;-45
2022/06/19 02:12:07;;;;;;;;;;;;;;;;;;2081255;28;20298;-43
2022/06/19 02:13:08;;;;;;;;;;;;;;;;;;2081573;28;19929;-43
2022/06/19 02:14:09;;;;;;;;;;;;;;;;;;2081327;28;19921;-44
2022/06/19 02:15:10;;;;;;;;;;;;;;;;;;2081106;28;19932;-44
2022/06/19 02:16:11;;;;;;;;;;;;;;;;;;2081501;28;20055;-44
2022/06/19 02:17:12;;;;;;;;;;;;;;;;;;2081113;28;19983;-43
2022/06/19 02:18:13;;;;;;;;;;;;;;;;;;2081085;28;19990;-44
2022/06/19 02:19:14;;;;;;;;;;;;;;;;;;2081233;28;19921;-43
2022/06/19 02:20:14;;;;;;;;;;;;;;;;;;2081283;28;20012;-43
2022/06/19 02:21:16;;;;;;;;;;;;;;;;;;2081055;28;19960;-43
2022/06/19 02:22:16;;;;;;;;;;;;;;;;;;2081206;28;20015;-43
2022/06/19 02:23:17;;;;;;;;;;;;;;;;;;2081153;28;19960;-43
2022/06/19 02:24:19;;;;;;;;;;;;;;;;;;2081107;28;20388;-44
2022/06/19 02:25:20;;;;;;;;;;;;;;;;;;2081465;28;19931;-43
2022/06/19 02:26:21;;;;;;;;;;;;;;;;;;2082545;28;19928;-43
2022/06/19 02:27:22;;;;;;;;;;;;;;;;;;2082767;28;19921;-43
2022/06/19 02:28:23;;;;;;;;;;;;;;;;;;2082572;28;19928;-43
2022/06/19 02:29:24;;;;;;;;;;;;;;;;;;2082694;28;19921;-43
2022/06/19 02:30:25;;;;;;;;;;;;;;;;;;2082617;28;19921;-44
2022/06/19 02:31:26;;;;;;;;;;;;;;;;;;2082482;28;20365;-44
2022/06/19 02:32:27;;;;;;;;;;;;;;;;;;2082480;28;20382;-43
2022/06/19 02:33:27;;;;;;;;;;;;;;;;;;2082691;28;19921;-43
2022/06/19 02:34:28;;;;;;;;;;;;;;;;;;2082515;28;20008;-43
2022/06/19 02:35:29;;;;;;;;;;;;;;;;;;2082551;28;19927;-44
2022/06/19 02:36:30;;;;;;;;;;;;;;;;;;2082584;28;19921;-43
2022/06/19 02:37:31;;;;;;;;;;;;;;;;;;2082523;28;19921;-43
2022/06/19 02:38:32;;;;;;;;;;;;;;;;;;2082725;28;19928;-43
2022/06/19 02:39:34;;;;;;;;;;;;;;;;;;2082393;28;20310;-43
2022/06/19 02:40:34;;;;;;;;;;;;;;;;;;2082618;28;20023;-43
2022/06/19 02:41:42;;;;;;;;;;;;;;;;;;2082415;28;19921;-43
2022/06/19 02:42:43;;;;;;;;;;;;;;;;;;2082696;28;20024;-46
2022/06/19 02:43:44;;;;;;;;;;;;;;;;;;2082584;28;19961;-45
2022/06/19 02:44:45;;;;;;;;;;;;;;;;;;2082464;28;20297;-46
2022/06/19 02:45:46;;;;;;;;;;;;;;;;;;2082269;28;19921;-46
2022/06/19 02:46:47;;;;;;;;;;;;;;;;;;2082552;28;19928;-46
2022/06/19 02:47:48;;;;;;;;;;;;;;;;;;2082594;28;20371;-46
2022/06/19 02:48:50;;;;;;;;;;;;;;;;;;2082581;28;19971;-43
2022/06/19 02:49:51;;;;;;;;;;;;;;;;;;2082406;28;19956;-43
2022/06/19 02:50:52;;;;;;;;;;;;;;;;;;2082334;28;19920;-43
2022/06/19 02:51:52;;;;;;;;;;;;;;;;;;2082414;28;20371;-43
2022/06/19 02:52:54;;;;;;;;;;;;;;;;;;2082447;28;19964;-43
2022/06/19 02:53:54;;;;;;;;;;;;;;;;;;2082500;28;20051;-43
2022/06/19 02:54:56;;;;;;;;;;;;;;;;;;2082472;28;19920;-43
2022/06/19 02:55:58;;;;;;;;;;;;;;;;;;2082312;28;19921;-43
2022/06/19 02:56:58;;;;;;;;;;;;;;;;;;2089741;28;20011;-43
2022/06/19 02:57:59;;;;;;;;;;;;;;;;;;2090616;28;19921;-43
2022/06/19 02:59:00;;;;;;;;;;;;;;;;;;2090635;28;19921;-43
2022/06/19 03:00:01;;;;;;;;;;;;;;;;;;2090878;28;19943;-46
2022/06/19 03:01:02;;;;;;;;;;;;;;;;;;2090749;28;20007;-45
2022/06/19 03:02:03;;;;;;;;;;;;;;;;;;2090501;28;19956;-45
2022/06/19 03:03:04;;;;;;;;;;;;;;;;;;2090578;28;19920;-46
2022/06/19 03:04:05;;;;;;;;;;;;;;;;;;2090625;28;19928;-46
2022/06/19 03:05:06;;;;;;;;;;;;;;;;;;2090564;28;19943;-45
2022/06/19 03:06:07;;;;;;;;;;;;;;;;;;2090446;28;19940;-46
2022/06/19 03:07:07;;;;;;;;;;;;;;;;;;2090518;28;20011;-46
2022/06/19 03:08:08;;;;;;;;;;;;;;;;;;2090676;28;19927;-46
2022/06/19 03:09:09;;;;;;;;;;;;;;;;;;2090514;28;20066;-46
2022/06/19 03:10:10;;;;;;;;;;;;;;;;;;2090641;28;19928;-45
2022/06/19 03:11:11;;;;;;;;;;;;;;;;;;2087684;28;19928;-46
2022/06/19 03:12:12;;;;;;;;;;;;;;;;;;2082313;28;19971;-46
2022/06/19 03:13:15;;;;;;;;;;;;;;;;;;2082205;28;19963;-46
2022/06/19 03:14:16;;;;;;;;;;;;;;;;;;2082327;28;20016;-45
2022/06/19 03:15:17;;;;;;;;;;;;;;;;;;2082474;28;19928;-47
2022/06/19 03:16:18;;;;;;;;;;;;;;;;;;2082185;28;20011;-45
2022/06/19 03:17:19;;;;;;;;;;;;;;;;;;2082323;28;19975;-46
2022/06/19 03:18:26;;;;;;;;;;;;;;;;;;2082312;28;20003;-45
2022/06/19 03:19:27;;;;;;;;;;;;;;;;;;2082196;28;19978;-46
2022/06/19 03:20:27;;;;;;;;;;;;;;;;;;2082173;28;20003;-45
2022/06/19 03:21:28;;;;;;;;;;;;;;;;;;2082328;28;20278;-45
2022/06/19 03:22:29;;;;;;;;;;;;;;;;;;2082204;28;19920;-46
2022/06/19 03:23:30;;;;;;;;;;;;;;;;;;2082609;28;19975;-45
2022/06/19 03:24:31;;;;;;;;;;;;;;;;;;2082262;28;20004;-46
2022/06/19 03:25:32;;;;;;;;;;;;;;;;;;2082133;28;19921;-45
2022/06/19 03:26:33;;;;;;;;;;;;;;;;;;2082217;28;20012;-48
2022/06/19 03:27:34;;;;;;;;;;;;;;;;;;2082268;28;19968;-46
2022/06/19 03:28:35;;;;;;;;;;;;;;;;;;2082236;28;19925;-45
2022/06/19 03:29:36;;;;;;;;;;;;;;;;;;2082301;28;19921;-46
2022/06/19 03:30:37;;;;;;;;;;;;;;;;;;2082352;28;19944;-46
2022/06/19 03:31:37;;;;;;;;;;;;;;;;;;2082071;28;20068;-46
2022/06/19 03:32:39;;;;;;;;;;;;;;;;;;2082459;28;20413;-46
2022/06/19 03:33:39;;;;;;;;;;;;;;;;;;2082155;28;19929;-45
2022/06/19 03:34:40;;;;;;;;;;;;;;;;;;2082148;28;19925;-47
2022/06/19 03:35:41;;;;;;;;;;;;;;;;;;2082201;28;19960;-45
2022/06/19 03:36:42;;;;;;;;;;;;;;;;;;2082120;28;20275;-45
2022/06/19 03:37:43;;;;;;;;;;;;;;;;;;2082114;28;19984;-46
2022/06/19 03:38:44;;;;;;;;;;;;;;;;;;2082239;28;19931;-45
2022/06/19 03:39:45;;;;;;;;;;;;;;;;;;2082293;28;20425;-45
2022/06/19 03:40:46;;;;;;;;;;;;;;;;;;2082058;28;19932;-46
2022/06/19 03:41:46;;;;;;;;;;;;;;;;;;2082608;28;20011;-46
2022/06/19 03:42:47;;;;;;;;;;;;;;;;;;2082071;28;19921;-45
2022/06/19 03:43:48;;;;;;;;;;;;;;;;;;2082187;28;19971;-46
2022/06/19 03:44:49;;;;;;;;;;;;;;;;;;2082154;28;20446;-45
2022/06/19 03:45:50;;;;;;;;;;;;;;;;;;2082175;28;20012;-45
2022/06/19 03:46:51;;;;;;;;;;;;;;;;;;2082074;28;20008;-46
2022/06/19 03:47:52;;;;;;;;;;;;;;;;;;2082248;28;19921;-45
2022/06/19 03:48:53;;;;;;;;;;;;;;;;;;2081667;28;19975;-46
2022/06/19 03:49:54;;;;;;;;;;;;;;;;;;2081648;28;19920;-45
2022/06/19 03:50:55;;;;;;;;;;;;;;;;;;2081537;28;19932;-46
2022/06/19 03:51:55;;;;;;;;;;;;;;;;;;2085237;28;19921;-46
2022/06/19 03:52:56;;;;;;;;;;;;;;;;;;2090144;28;20003;-43
2022/06/19 03:53:57;;;;;;;;;;;;;;;;;;2090204;28;20358;-43
2022/06/19 03:54:58;;;;;;;;;;;;;;;;;;2090393;28;19931;-43
2022/06/19 03:55:59;;;;;;;;;;;;;;;;;;2090111;28;20003;-43
2022/06/19 03:57:00;;;;;;;;;;;;;;;;;;2090254;28;19920;-43
2022/06/19 03:58:00;;;;;;;;;;;;;;;;;;2090486;28;20503;-43
2022/06/19 03:59:01;;;;;;;;;;;;;;;;;;2090120;28;19980;-43
2022/06/19 04:00:02;;;;;;;;;;;;;;;;;;2090505;28;19921;-43
2022/06/19 04:01:03;;;;;;;;;;;;;;;;;;2090241;28;20401;-43
2022/06/19 04:02:05;;;;;;;;;;;;;;;;;;2090250;28;20346;-44
2022/06/19 04:03:07;;;;;;;;;;;;;;;;;;2090172;28;19921;-46
2022/06/19 04:04:07;;;;;;;;;;;;;;;;;;2090302;28;19920;-45
2022/06/19 04:05:09;;;;;;;;;;;;;;;;;;2090503;28;19927;-43
2022/06/19 04:06:10;;;;;;;;;;;;;;;;;;2090083;28;20511;-44
2022/06/19 04:07:10;;;;;;;;;;;;;;;;;;2090336;28;19925;-46
2022/06/19 04:08:11;;;;;;;;;;;;;;;;;;2090145;28;20011;-45
2022/06/19 04:09:12;;;;;;;;;;;;;;;;;;2090111;28;20071;-45
2022/06/19 04:10:13;;;;;;;;;;;;;;;;;;2090177;28;20019;-45
2022/06/19 04:11:14;;;;;;;;;;;;;;;;;;2086818;28;19928;-46
2022/06/19 04:12:16;;;;;;;;;;;;;;;;;;2081889;28;19925;-46
2022/06/19 04:13:17;;;;;;;;;;;;;;;;;;2081897;28;20374;-45
2022/06/19 04:14:17;;;;;;;;;;;;;;;;;;2081743;28;20368;-45
2022/06/19 04:15:18;;;;;;;;;;;;;;;;;;2082001;28;19928;-46
2022/06/19 04:16:19;;;;;;;;;;;;;;;;;;2082035;28;20011;-45
2022/06/19 04:17:20;;;;;;;;;;;;;;;;;;2081942;28;19964;-45
2022/06/19 04:18:21;;;;;;;;;;;;;;;;;;2082158;28;19929;-45
2022/06/19 04:19:22;;;;;;;;;;;;;;;;;;2081882;28;20351;-46
2022/06/19 04:20:23;;;;;;;;;;;;;;;;;;2081766;28;20477;-45
2022/06/19 04:21:25;;;;;;;;;;;;;;;;;;2081849;28;19924;-47
2022/06/19 04:22:25;;;;;;;;;;;;;;;;;;2081881;28;19970;-45
2022/06/19 04:23:26;;;;;;;;;;;;;;;;;;2081663;28;19920;-46
2022/06/19 04:24:27;;;;;;;;;;;;;;;;;;2081827;28;19986;-45
2022/06/19 04:25:28;;;;;;;;;;;;;;;;;;2081796;28;20031;-46
2022/06/19 04:26:29;;;;;;;;;;;;;;;;;;2081634;28;19928;-47
2022/06/19 04:27:30;;;;;;;;;;;;;;;;;;2081863;28;19929;-46
2022/06/19 04:28:30;;;;;;;;;;;;;;;;;;2082114;28;19921;-46
2022/06/19 04:29:32;;;;;;;;;;;;;;;;;;2081732;28;19927;-46
2022/06/19 04:30:32;;;;;;;;;;;;;;;;;;2081917;28;19925;-45
2022/06/19 04:31:33;;;;;;;;;;;;;;;;;;2081807;28;19921;-45
2022/06/19 04:32:34;;;;;;;;;;;;;;;;;;2081890;28;19975;-46
2022/06/19 04:33:38;;;;;;;;;;;;;;;;;;2082051;28;20290;-46
2022/06/19 04:34:39;;;;;;;;;;;;;;;;;;2081812;28;19921;-44
2022/06/19 04:35:40;;;;;;;;;;;;;;;;;;2081941;28;19928;-43
2022/06/19 04:36:41;;;;;;;;;;;;;;;;;;2081725;28;19971;-43
2022/06/19 04:37:43;;;;;;;;;;;;;;;;;;2081839;28;19921;-43
2022/06/19 04:38:44;;;;;;;;;;;;;;;;;;2081934;28;20067;-46
2022/06/19 04:39:45;;;;;;;;;;;;;;;;;;2081772;28;20460;-45
2022/06/19 04:40:45;;;;;;;;;;;;;;;;;;2081709;28;19952;-46
2022/06/19 04:41:46;;;;;;;;;;;;;;;;;;2081929;28;20016;-46
2022/06/19 04:42:47;;;;;;;;;;;;;;;;;;2081938;28;19960;-43
2022/06/19 04:43:48;;;;;;;;;;;;;;;;;;2081775;28;20290;-43
2022/06/19 04:44:49;;;;;;;;;;;;;;;;;;2082342;28;20015;-46
2022/06/19 04:45:50;;;;;;;;;;;;;;;;;;2081819;28;19909;-46
2022/06/19 04:46:51;;;;;;;;;;;;;;;;;;2081677;28;19920;-47
2022/06/19 04:47:51;;;;;;;;;;;;;;;;;;2081321;28;20280;-47
2022/06/19 04:48:52;;;;;;;;;;;;;;;;;;2083509;28;19928;-46
2022/06/19 04:49:53;;;;;;;;;;;;;;;;;;2089970;28;19928;-43
2022/06/19 04:50:54;;;;;;;;;;;;;;;;;;2089956;28;19961;-43
2022/06/19 04:51:55;;;;;;;;;;;;;;;;;;2089975;28;19924;-43
2022/06/19 04:52:56;;;;;;;;;;;;;;;;;;2090019;28;20294;-43
2022/06/19 04:53:57;;;;;;;;;;;;;;;;;;2089885;28;20054;-43
2022/06/19 04:54:58;;;;;;;;;;;;;;;;;;2089836;28;20335;-43
2022/06/19 04:55:59;;;;;;;;;;;;;;;;;;2089826;28;19928;-44
2022/06/19 04:56:59;;;;;;;;;;;;;;;;;;2089982;28;20007;-46
2022/06/19 04:58:00;;;;;;;;;;;;;;;;;;2089997;28;19943;-45
2022/06/19 04:59:01;;;;;;;;;;;;;;;;;;2089789;28;20267;-46
2022/06/19 05:00:02;;;;;;;;;;;;;;;;;;2089959;28;19921;-46
2022/06/19 05:01:05;;;;;;;;;;;;;;;;;;2089851;28;20334;-46
2022/06/19 05:02:06;;;;;;;;;;;;;;;;;;2089905;28;19928;-46
2022/06/19 05:03:07;;;;;;;;;;;;;;;;;;2089933;28;20385;-46
2022/06/19 05:04:08;;;;;;;;;;;;;;;;;;2090138;28;19927;-43
2022/06/19 05:05:09;;;;;;;;;;;;;;;;;;2089899;28;20063;-43
2022/06/19 05:06:10;;;;;;;;;;;;;;;;;;2089708;28;19921;-43
2022/06/19 05:07:11;;;;;;;;;;;;;;;;;;2089816;28;19920;-44
2022/06/19 05:08:11;;;;;;;;;;;;;;;;;;2089962;28;19921;-47
2022/06/19 05:09:12;;;;;;;;;;;;;;;;;;2090005;28;20421;-45
2022/06/19 05:10:13;;;;;;;;;;;;;;;;;;2089930;28;20023;-44
2022/06/19 05:11:14;;;;;;;;;;;;;;;;;;2086908;28;19956;-48
2022/06/19 05:12:15;;;;;;;;;;;;;;;;;;2081832;28;20177;-46
2022/06/19 05:13:16;;;;;;;;;;;;;;;;;;2081558;28;20444;-46
2022/06/19 05:14:17;;;;;;;;;;;;;;;;;;2081591;28;20048;-46
2022/06/19 05:15:18;;;;;;;;;;;;;;;;;;2081487;28;20163;-46
2022/06/19 05:16:19;;;;;;;;;;;;;;;;;;2081539;28;20051;-46
2022/06/19 05:17:19;;;;;;;;;;;;;;;;;;2081669;28;19966;-45
2022/06/19 05:18:21;;;;;;;;;;;;;;;;;;2081384;28;20008;-46
2022/06/19 05:19:22;;;;;;;;;;;;;;;;;;2081545;28;19927;-45
2022/06/19 05:20:23;;;;;;;;;;;;;;;;;;2081701;28;20233;-45
2022/06/19 05:21:24;;;;;;;;;;;;;;;;;;2081601;28;19996;-47
2022/06/19 05:22:25;;;;;;;;;;;;;;;;;;2081500;28;19947;-48
2022/06/19 05:23:26;;;;;;;;;;;;;;;;;;2081529;28;19960;-46
2022/06/19 05:24:27;;;;;;;;;;;;;;;;;;2081596;28;19932;-48
2022/06/19 05:25:28;;;;;;;;;;;;;;;;;;2081513;28;19925;-45
2022/06/19 05:26:29;;;;;;;;;;;;;;;;;;2081358;28;19928;-44
2022/06/19 05:27:29;;;;;;;;;;;;;;;;;;2081710;28;19960;-42
2022/06/19 05:28:30;;;;;;;;;;;;;;;;;;2082003;28;20373;-45
2022/06/19 05:29:32;;;;;;;;;;;;;;;;;;2081513;28;20007;-42
2022/06/19 05:30:35;;;;;;;;;;;;;;;;;;2081544;28;19921;-45
2022/06/19 05:31:36;;;;;;;;;;;;;;;;;;2081452;28;20050;-45
2022/06/19 05:32:36;;;;;;;;;;;;;;;;;;2081338;28;20374;-46
2022/06/19 05:33:37;;;;;;;;;;;;;;;;;;2081334;28;19970;-45
2022/06/19 05:34:38;;;;;;;;;;;;;;;;;;2081709;28;19921;-43
2022/06/19 05:35:42;;;;;;;;;;;;;;;;;;2081382;28;20314;-42
2022/06/19 05:36:43;;;;;;;;;;;;;;;;;;2081471;28;19921;-43
2022/06/19 05:37:44;;;;;;;;;;;;;;;;;;2081612;28;20309;-45
2022/06/19 05:38:44;;;;;;;;;;;;;;;;;;2081365;28;20377;-46
2022/06/19 05:39:45;;;;;;;;;;;;;;;;;;2081410;28;19925;-45
2022/06/19 05:40:52;;;;;;;;;;;;;;;;;;2081667;28;19921;-45
2022/06/19 05:41:54;;;;;;;;;;;;;;;;;;2081847;28;19921;-43
2022/06/19 05:42:55;;;;;;;;;;;;;;;;;;2081224;28;20461;-42
2022/06/19 05:43:56;;;;;;;;;;;;;;;;;;2081343;28;19921;-43
2022/06/19 05:44:57;;;;;;;;;;;;;;;;;;2082037;28;20309;-42
2022/06/19 05:45:58;;;;;;;;;;;;;;;;;;2096144;28;19920;-45
2022/06/19 05:46:58;;;;;;;;;;;;;;;;;;2097932;28;19927;-45
2022/06/19 05:48:00;;;;;;;;;;;;;;;;;;2098048;28;19926;-46
2022/06/19 05:49:05;;;;;;;;;;;;;;;;;;2097876;28;19924;-44
2022/06/19 05:50:06;;;;;;;;;;;;;;;;;;2097839;28;19927;-45
2022/06/19 05:51:07;;;;;;;;;;;;;;;;;;2097740;28;19927;-44
2022/06/19 05:52:08;;;;;;;;;;;;;;;;;;2098274;28;20608;-42
2022/06/19 05:53:08;;;;;;;;;;;;;;;;;;2098214;28;20010;-43
2022/06/19 05:54:09;;;;;;;;;;;;;;;;;;2098132;28;20011;-45
2022/06/19 05:55:12;;;;;;;;;;;;;;;;;;2097817;28;19959;-45
2022/06/19 05:56:13;;;;;;;;;;;;;;;;;;2097735;28;20396;-45
2022/06/19 05:57:13;;;;;;;;;;;;;;;;;;2098208;28;19964;-42
2022/06/19 05:58:15;;;;;;;;;;;;;;;;;;2097829;28;19920;-43
2022/06/19 05:59:15;;;;;;;;;;;;;;;;;;2098489;28;20293;-42
2022/06/19 06:00:17;;;;;;;;;;;;;;;;;;2098156;28;19958;-45
2022/06/19 06:01:18;;;;;;;;;;;;;;;;;;2099455;28;19926;-41
2022/06/19 06:02:22;;;;;;;;;;;;;;;;;;2099243;28;20385;-44
2022/06/19 06:03:23;;;;;;;;;;;;;;;;;;2099329;28;19921;-44
2022/06/19 06:04:24;;;;;;;;;;;;;;;;;;2094077;28;20396;-42
2022/06/19 06:05:25;;;;;;;;;;;;;;;;;;2091147;28;19988;-45
2022/06/19 06:06:26;;;;;;;;;;;;;;;;;;2090826;28;20385;-46
2022/06/19 06:07:26;;;;;;;;;;;;;;;;;;2090979;28;19924;-45
2022/06/19 06:08:28;;;;;;;;;;;;;;;;;;2090979;28;19924;-45
2022/06/19 06:09:28;;;;;;;;;;;;;;;;;;2091050;28;20049;-47
2022/06/19 06:10:29;;;;;;;;;;;;;;;;;;2091264;28;19928;-47
2022/06/19 06:11:30;;;;;;;;;;;;;;;;;;2090700;28;19921;-46
2022/06/19 06:12:31;;;;;;;;;;;;;;;;;;2091116;28;20374;-47
2022/06/19 06:13:32;;;;;;;;;;;;;;;;;;2091706;28;20011;-47
2022/06/19 06:14:33;;;;;;;;;;;;;;;;;;2091199;28;19920;-43
2022/06/19 06:15:34;;;;;;;;;;;;;;;;;;2091299;28;20060;-46
2022/06/19 06:16:35;;;;;;;;;;;;;;;;;;2090953;28;19924;-46
2022/06/19 06:17:35;;;;;;;;;;;;;;;;;;2090965;28;19931;-47
2022/06/19 06:18:37;;;;;;;;;;;;;;;;;;2091217;28;19928;-44
2022/06/19 06:19:37;;;;;;;;;;;;;;;;;;2091290;28;19928;-44
2022/06/19 06:20:38;;;;;;;;;;;;;;;;;;2091014;28;19994;-44
2022/06/19 06:21:39;;;;;;;;;;;;;;;;;;2090573;28;19928;-44
2022/06/19 06:22:40;;;;;;;;;;;;;;;;;;2091467;28;20468;-43
2022/06/19 06:23:42;;;;;;;;;;;;;;;;;;2090932;28;20015;-44
2022/06/19 06:24:43;;;;;;;;;;;;;;;;;;2090783;28;19971;-43
2022/06/19 06:25:44;;;;;;;;;;;;;;;;;;2090939;28;20362;-43
2022/06/19 06:26:47;;;;;;;;;;;;;;;;;;2091268;28;19922;-47
2022/06/19 06:27:49;;;;;;;;;;;;;;;;;;2091232;28;20054;-44
2022/06/19 06:28:51;;;;;;;;;;;;;;;;;;2090748;28;19921;-46
2022/06/19 06:29:52;;;;;;;;;;;;;;;;;;2091061;28;19921;-44
2022/06/19 06:30:52;;;;;;;;;;;;;;;;;;2090889;28;19960;-44
2022/06/19 06:31:53;;;;;;;;;;;;;;;;;;2091056;28;19928;-46
2022/06/19 06:32:54;;;;;;;;;;;;;;;;;;2091152;28;20024;-43
2022/06/19 06:33:55;;;;;;;;;;;;;;;;;;2090923;28;19925;-44
2022/06/19 06:34:56;;;;;;;;;;;;;;;;;;2091052;28;19963;-45
2022/06/19 06:35:57;;;;;;;;;;;;;;;;;;2091247;28;20378;-44
2022/06/19 06:36:58;;;;;;;;;;;;;;;;;;2090902;28;19943;-43
2022/06/19 06:37:59;;;;;;;;;;;;;;;;;;2090782;28;19927;-44
2022/06/19 06:39:00;;;;;;;;;;;;;;;;;;2090845;28;20016;-44
2022/06/19 06:40:01;;;;;;;;;;;;;;;;;;2091122;28;20070;-43
2022/06/19 06:41:01;;;;;;;;;;;;;;;;;;2091009;28;19927;-44
2022/06/19 06:42:02;;;;;;;;;;;;;;;;;;2090838;28;19990;-46
2022/06/19 06:43:03;;;;;;;;;;;;;;;;;;2090630;28;19963;-44
2022/06/19 06:44:04;;;;;;;;;;;;;;;;;;2090875;28;19921;-44
2022/06/19 06:45:09;;;;;;;;;;;;;;;;;;2090718;28;19921;-47
2022/06/19 06:46:10;;;;;;;;;;;;;;;;;;2090792;28;19920;-47
2022/06/19 06:47:11;;;;;;;;;;;;;;;;;;2090855;28;20445;-43
2022/06/19 06:48:12;;;;;;;;;;;;;;;;;;2091044;28;19925;-46
2022/06/19 06:49:13;;;;;;;;;;;;;;;;;;2090949;28;20275;-47
2022/06/19 06:50:14;;;;;;;;;;;;;;;;;;2090698;28;19920;-46
2022/06/19 06:51:15;;;;;;;;;;;;;;;;;;2090909;28;20392;-43
2022/06/19 06:52:16;;;;;;;;;;;;;;;;;;2091186;28;19925;-44
2022/06/19 06:53:21;;;;;;;;;;;;;;;;;;2090822;28;19924;-46
2022/06/19 06:54:22;;;;;;;;;;;;;;;;;;2090759;28;19975;-47
2022/06/19 06:55:23;;;;;;;;;;;;;;;;;;2091083;28;19927;-43
2022/06/19 06:56:24;;;;;;;;;;;;;;;;;;2090463;28;19944;-43
2022/06/19 06:57:25;;;;;;;;;;;;;;;;;;2090995;28;19920;-43
2022/06/19 06:58:25;;;;;;;;;;;;;;;;;;2090795;28;20035;-43